createdAt,value
2023-09-24T00:00:48.751Z,99128.86
2023-09-24T00:03:54.081Z,99135.42
2023-09-24T00:06:46.810Z,99136.97
2023-09-24T00:09:39.154Z,99139.80
2023-09-24T00:12:31.387Z,99138.76
2023-09-24T00:15:23.594Z,99133.85
2023-09-24T00:18:15.960Z,99134.56
2023-09-24T00:21:08.444Z,99124.00
2023-09-24T00:24:01.038Z,99116.06
2023-09-24T00:26:54.190Z,99111.77
2023-09-24T00:29:46.627Z,99110.61
2023-09-24T00:32:39.116Z,99104.27
2023-09-24T00:35:17.047Z,99107.34
2023-09-24T00:38:09.964Z,99111.45
2023-09-24T00:41:02.295Z,99118.58
2023-09-24T00:43:54.576Z,99121.85
2023-09-24T00:46:48.022Z,99133.52
2023-09-24T00:49:44.917Z,99143.80
2023-09-24T00:52:37.429Z,99147.40
2023-09-24T00:55:32.075Z,99149.56
2023-09-24T00:58:27.005Z,99156.64
2023-09-24T01:01:12.387Z,99158.98
2023-09-24T01:04:07.194Z,99165.80
2023-09-24T01:07:00.788Z,99168.16
2023-09-24T01:09:53.340Z,99180.60
2023-09-24T01:13:02.104Z,99191.52
2023-09-24T01:15:54.766Z,99199.85
2023-09-24T01:18:47.230Z,99208.27
2023-09-24T01:21:40.503Z,99208.00
2023-09-24T01:24:32.790Z,99207.11
2023-09-24T01:27:26.188Z,99203.54
2023-09-24T01:30:19.001Z,99200.74
2023-09-24T01:33:11.297Z,99199.88
2023-09-24T01:36:03.575Z,99198.09
2023-09-24T01:38:55.968Z,99204.59
2023-09-24T01:41:48.389Z,99211.41
2023-09-24T01:44:41.524Z,99214.68
2023-09-24T01:47:34.733Z,99209.88
2023-09-24T01:50:28.563Z,99212.65
2023-09-24T01:53:24.238Z,99215.30
2023-09-24T01:56:18.927Z,99220.52
2023-09-24T01:59:11.106Z,99221.73
2023-09-24T02:02:03.358Z,99226.72
2023-09-24T02:04:56.880Z,99225.38
2023-09-24T02:07:50.337Z,99228.33
2023-09-24T02:10:43.919Z,99226.92
2023-09-24T02:13:36.114Z,99229.73
2023-09-24T02:16:28.848Z,99232.91
2023-09-24T02:19:22.480Z,99228.39
2023-09-24T02:22:14.707Z,99228.59
2023-09-24T02:25:08.714Z,99234.78
2023-09-24T02:28:01.694Z,99234.58
2023-09-24T02:30:55.166Z,99231.84
2023-09-24T02:33:47.687Z,99233.51
2023-09-24T02:36:40.045Z,99242.54
2023-09-24T02:39:32.357Z,99246.11
2023-09-24T02:42:26.293Z,99250.17
2023-09-24T02:45:08.259Z,99253.38
2023-09-24T02:48:00.806Z,99265.02
2023-09-24T02:50:53.266Z,99274.38
2023-09-24T02:53:47.959Z,99273.30
2023-09-24T02:56:40.421Z,99274.84
2023-09-24T02:59:33.655Z,99280.42
2023-09-24T03:02:27.366Z,99287.15
2023-09-24T03:05:25.586Z,99287.48
2023-09-24T03:08:18.910Z,99288.93
2023-09-24T03:11:16.842Z,99288.36
2023-09-24T03:14:10.149Z,99295.14
2023-09-24T03:17:02.381Z,99303.56
2023-09-24T03:19:54.627Z,99306.88
2023-09-24T03:22:49.484Z,99303.80
2023-09-24T03:25:41.889Z,99303.30
2023-09-24T03:28:34.147Z,99299.76
2023-09-24T03:31:26.489Z,99299.61
2023-09-24T03:34:18.647Z,99302.67
2023-09-24T03:37:10.851Z,99304.09
2023-09-24T03:39:48.031Z,99305.77
2023-09-24T03:42:40.811Z,99310.27
2023-09-24T03:45:33.133Z,99311.73
2023-09-24T03:48:26.053Z,99316.38
2023-09-24T03:51:18.374Z,99317.05
2023-09-24T03:54:10.680Z,99321.36
2023-09-24T03:57:03.082Z,99331.96
2023-09-24T03:59:55.525Z,99334.23
2023-09-24T04:02:49.637Z,99338.37
2023-09-24T04:05:43.397Z,99343.23
2023-09-24T04:08:35.662Z,99342.91
2023-09-24T04:11:29.001Z,99346.32
2023-09-24T04:14:21.350Z,99348.69
2023-09-24T04:17:13.835Z,99351.80
2023-09-24T04:20:08.968Z,99348.85
2023-09-24T04:23:01.319Z,99348.74
2023-09-24T04:25:53.651Z,99353.21
2023-09-24T04:28:47.767Z,99358.41
2023-09-24T04:31:41.927Z,99352.05
2023-09-24T04:34:34.190Z,99354.09
2023-09-24T04:37:27.799Z,99356.88
2023-09-24T04:40:20.717Z,99363.89
2023-09-24T04:43:16.599Z,99365.82
2023-09-24T04:46:08.937Z,99371.80
2023-09-24T04:49:04.321Z,99374.02
2023-09-24T04:51:56.631Z,99379.66
2023-09-24T04:54:48.820Z,99382.86
2023-09-24T04:57:41.120Z,99383.05
2023-09-24T05:00:33.475Z,99390.27
2023-09-24T05:03:26.033Z,99389.00
2023-09-24T05:06:18.347Z,99387.86
2023-09-24T05:09:10.894Z,99399.04
2023-09-24T05:12:03.322Z,99404.20
2023-09-24T05:14:55.665Z,99406.73
2023-09-24T05:17:48.079Z,99409.04
2023-09-24T05:20:40.434Z,99413.70
2023-09-24T05:23:33.021Z,99421.09
2023-09-24T05:26:25.250Z,99421.28
2023-09-24T05:29:17.516Z,99422.17
2023-09-24T05:32:09.693Z,99428.80
2023-09-24T05:35:01.945Z,99429.91
2023-09-24T05:37:54.147Z,99432.05
2023-09-24T05:40:46.350Z,99431.05
2023-09-24T05:43:49.828Z,99428.84
2023-09-24T05:46:42.213Z,99433.70
2023-09-24T05:49:34.435Z,99435.52
2023-09-24T05:52:11.800Z,99433.33
2023-09-24T05:55:04.127Z,99437.74
2023-09-24T05:57:56.332Z,99433.34
2023-09-24T06:00:48.828Z,99430.40
2023-09-24T06:03:41.091Z,99425.02
2023-09-24T06:06:33.444Z,99425.65
2023-09-24T06:09:25.780Z,99421.76
2023-09-24T06:12:18.839Z,99425.67
2023-09-24T06:15:14.768Z,99435.75
2023-09-24T06:18:07.587Z,99434.85
2023-09-24T06:21:00.461Z,99438.63
2023-09-24T06:23:52.718Z,99450.08
2023-09-24T06:26:44.973Z,99455.33
2023-09-24T06:29:38.344Z,99465.09
2023-09-24T06:32:31.278Z,99471.24
2023-09-24T06:35:23.829Z,99465.46
2023-09-24T06:38:15.969Z,99468.06
2023-09-24T06:41:03.464Z,99471.48
2023-09-24T06:43:55.662Z,99471.34
2023-09-24T06:46:47.875Z,99475.06
2023-09-24T06:49:40.139Z,99477.39
2023-09-24T06:52:33.829Z,99489.65
2023-09-24T06:55:26.175Z,99500.23
2023-09-24T06:58:18.520Z,99499.58
2023-09-24T07:00:53.543Z,99502.34
2023-09-24T07:03:43.077Z,99501.71
2023-09-24T07:06:35.783Z,99508.02
2023-09-24T07:09:10.761Z,99511.30
2023-09-24T07:11:46.246Z,99512.21
2023-09-24T07:14:38.521Z,99509.26
2023-09-24T07:17:30.968Z,99502.38
2023-09-24T07:20:23.293Z,99511.35
2023-09-24T07:23:15.471Z,99516.02
2023-09-24T07:25:58.783Z,99521.68
2023-09-24T07:28:51.102Z,99531.16
2023-09-24T07:31:44.702Z,99531.80
2023-09-24T07:34:37.041Z,99531.40
2023-09-24T07:37:18.763Z,99527.23
2023-09-24T07:40:12.806Z,99531.73
2023-09-24T07:43:05.106Z,99530.59
2023-09-24T07:45:57.355Z,99533.44
2023-09-24T07:48:50.569Z,99539.30
2023-09-24T07:51:44.004Z,99552.63
2023-09-24T07:54:36.221Z,99555.32
2023-09-24T07:57:28.393Z,99557.05
2023-09-24T08:00:21.462Z,99553.52
2023-09-24T08:03:13.810Z,99560.62
2023-09-24T08:06:07.096Z,99560.92
2023-09-24T08:09:09.500Z,99569.02
2023-09-24T08:12:10.465Z,99574.77
2023-09-24T08:15:02.871Z,99584.46
2023-09-24T08:17:55.341Z,99588.92
2023-09-24T08:20:47.837Z,99586.41
2023-09-24T08:23:40.192Z,99585.95
2023-09-24T08:26:15.610Z,99584.75
2023-09-24T08:28:47.835Z,99580.23
2023-09-24T08:31:40.616Z,99580.67
2023-09-24T08:34:32.884Z,99586.89
2023-09-24T08:37:25.313Z,99592.13
2023-09-24T08:40:18.065Z,99594.36
2023-09-24T08:43:19.071Z,99596.43
2023-09-24T08:45:51.390Z,99598.33
2023-09-24T08:48:44.750Z,99603.11
2023-09-24T08:51:38.303Z,99602.63
2023-09-24T08:54:32.652Z,99601.16
2023-09-24T08:57:25.061Z,99602.34
2023-09-24T09:00:18.847Z,99599.23
2023-09-24T09:03:11.372Z,99600.44
2023-09-24T09:05:54.694Z,99596.48
2023-09-24T09:08:57.567Z,99599.49
2023-09-24T09:11:51.116Z,99604.00
2023-09-24T09:14:44.366Z,99604.75
2023-09-24T09:17:43.048Z,99609.37
2023-09-24T09:20:48.569Z,99609.20
2023-09-24T09:23:42.676Z,99602.78
2023-09-24T09:26:37.960Z,99598.23
2023-09-24T09:29:31.248Z,99596.38
2023-09-24T09:32:27.082Z,99598.11
2023-09-24T09:35:19.668Z,99588.12
2023-09-24T09:38:15.425Z,99584.85
2023-09-24T09:41:07.863Z,99582.80
2023-09-24T09:44:06.685Z,99580.70
2023-09-24T09:47:01.856Z,99579.03
2023-09-24T09:50:00.764Z,99584.60
2023-09-24T09:52:56.735Z,99584.29
2023-09-24T09:55:51.802Z,99586.05
2023-09-24T09:58:48.405Z,99578.23
2023-09-24T10:01:40.729Z,99571.40
2023-09-24T10:04:34.956Z,99570.14
2023-09-24T10:07:29.023Z,99571.98
2023-09-24T10:10:44.900Z,99569.23
2023-09-24T10:13:50.719Z,99565.88
2023-09-24T10:16:43.141Z,99568.84
2023-09-24T10:19:51.060Z,99571.70
2023-09-24T10:22:44.318Z,99570.45
2023-09-24T10:25:38.859Z,99575.80
2023-09-24T10:28:51.113Z,99575.66
2023-09-24T10:32:15.869Z,99578.54
2023-09-24T10:35:15.209Z,99582.41
2023-09-24T10:38:07.923Z,99584.33
2023-09-24T10:41:08.075Z,99582.95
2023-09-24T10:43:40.145Z,99581.09
2023-09-24T10:46:32.514Z,99583.47
2023-09-24T10:49:26.545Z,99588.47
2023-09-24T10:52:17.369Z,99592.60
2023-09-24T10:55:10.234Z,99598.55
2023-09-24T10:58:04.308Z,99595.09
2023-09-24T11:00:56.532Z,99592.09
2023-09-24T11:03:49.506Z,99589.67
2023-09-24T11:06:41.843Z,99597.02
2023-09-24T11:09:34.337Z,99598.48
2023-09-24T11:12:27.460Z,99593.39
2023-09-24T11:15:21.854Z,99597.13
2023-09-24T11:17:56.838Z,99587.84
2023-09-24T11:20:55.753Z,99593.14
2023-09-24T11:23:39.180Z,99596.20
2023-09-24T11:26:34.671Z,99598.60
2023-09-24T11:29:26.807Z,99597.06
2023-09-24T11:32:29.384Z,99598.00
2023-09-24T11:35:23.110Z,99598.11
2023-09-24T11:38:15.960Z,99601.23
2023-09-24T11:40:51.233Z,99601.78
2023-09-24T11:43:44.256Z,99604.29
2023-09-24T11:46:36.810Z,99605.70
2023-09-24T11:49:29.048Z,99604.56
2023-09-24T11:52:21.233Z,99602.19
2023-09-24T11:55:13.813Z,99606.32
2023-09-24T11:58:07.825Z,99605.73
2023-09-24T12:01:03.032Z,99601.14
2023-09-24T12:03:55.713Z,99594.67
2023-09-24T12:06:31.085Z,99594.14
2023-09-24T12:09:23.352Z,99594.96
2023-09-24T12:12:16.135Z,99594.14
2023-09-24T12:15:10.543Z,99586.77
2023-09-24T12:18:05.715Z,99587.48
2023-09-24T12:20:48.023Z,99584.91
2023-09-24T12:23:40.870Z,99585.53
2023-09-24T12:26:33.080Z,99589.92
2023-09-24T12:29:25.288Z,99589.77
2023-09-24T12:32:07.147Z,99585.34
2023-09-24T12:34:59.429Z,99585.33
2023-09-24T12:37:54.645Z,99588.30
2023-09-24T12:40:47.625Z,99591.84
2023-09-24T12:43:39.869Z,99593.87
2023-09-24T12:46:32.322Z,99591.11
2023-09-24T12:49:24.609Z,99588.08
2023-09-24T12:52:16.944Z,99586.96
2023-09-24T12:55:11.994Z,99585.08
2023-09-24T12:58:04.329Z,99587.41
2023-09-24T13:00:56.622Z,99582.96
2023-09-24T13:03:49.181Z,99581.72
2023-09-24T13:06:45.609Z,99581.27
2023-09-24T13:09:38.187Z,99586.62
2023-09-24T13:12:31.422Z,99586.11
2023-09-24T13:15:25.117Z,99590.20
2023-09-24T13:18:00.128Z,99596.95
2023-09-24T13:20:52.414Z,99598.02
2023-09-24T13:23:44.577Z,99600.02
2023-09-24T13:26:37.411Z,99600.88
2023-09-24T13:29:29.934Z,99600.11
2023-09-24T13:32:22.960Z,99602.18
2023-09-24T13:35:15.350Z,99604.05
2023-09-24T13:38:07.801Z,99612.29
2023-09-24T13:41:00.003Z,99613.48
2023-09-24T13:43:52.205Z,99608.61
2023-09-24T13:46:44.522Z,99609.17
2023-09-24T13:49:39.534Z,99609.33
2023-09-24T13:52:31.844Z,99612.07
2023-09-24T13:55:24.066Z,99610.95
2023-09-24T13:58:16.886Z,99618.49
2023-09-24T14:01:01.977Z,99616.58
2023-09-24T14:03:54.977Z,99618.73
2023-09-24T14:06:48.821Z,99620.13
2023-09-24T14:09:58.875Z,99611.98
2023-09-24T14:12:59.560Z,99604.15
2023-09-24T14:15:51.828Z,99606.95
2023-09-24T14:18:44.201Z,99615.55
2023-09-24T14:21:36.612Z,99619.59
2023-09-24T14:24:28.843Z,99614.95
2023-09-24T14:27:21.423Z,99614.42
2023-09-24T14:30:15.586Z,99614.98
2023-09-24T14:33:07.017Z,99616.28
2023-09-24T14:36:01.410Z,99614.91
2023-09-24T14:38:54.100Z,99616.63
2023-09-24T14:41:47.290Z,99618.20
2023-09-24T14:44:47.782Z,99615.07
2023-09-24T14:47:42.547Z,99615.52
2023-09-24T14:50:39.929Z,99615.89
2023-09-24T14:53:34.028Z,99622.67
2023-09-24T14:56:26.694Z,99626.83
2023-09-24T14:59:18.947Z,99632.92
2023-09-24T15:02:11.204Z,99630.66
2023-09-24T15:05:04.061Z,99622.17
2023-09-24T15:07:39.727Z,99618.95
2023-09-24T15:10:31.935Z,99608.77
2023-09-24T15:13:24.816Z,99607.98
2023-09-24T15:16:17.110Z,99605.59
2023-09-24T15:19:09.447Z,99606.29
2023-09-24T15:22:02.469Z,99607.15
2023-09-24T15:24:54.710Z,99604.90
2023-09-24T15:27:47.707Z,99604.17
2023-09-24T15:30:42.213Z,99603.83
2023-09-24T15:33:34.578Z,99601.51
2023-09-24T15:36:27.069Z,99601.50
2023-09-24T15:39:19.284Z,99601.15
2023-09-24T15:42:01.800Z,99609.27
2023-09-24T15:44:54.037Z,99612.95
2023-09-24T15:47:46.346Z,99622.21
2023-09-24T15:50:38.646Z,99628.99
2023-09-24T15:53:30.879Z,99626.83
2023-09-24T15:56:23.127Z,99626.02
2023-09-24T15:59:15.895Z,99627.69
2023-09-24T16:02:10.048Z,99629.05
2023-09-24T16:05:00.738Z,99625.86
2023-09-24T16:07:52.994Z,99620.45
2023-09-24T16:10:45.202Z,99613.04
2023-09-24T16:13:39.267Z,99613.13
2023-09-24T16:16:31.922Z,99615.10
2023-09-24T16:19:24.297Z,99622.04
2023-09-24T16:22:00.082Z,99624.50
2023-09-24T16:24:54.593Z,99634.64
2023-09-24T16:27:46.864Z,99639.33
2023-09-24T16:30:42.429Z,99644.30
2023-09-24T16:33:35.161Z,99654.52
2023-09-24T16:36:27.631Z,99664.23
2023-09-24T16:39:19.972Z,99671.48
2023-09-24T16:42:12.283Z,99674.21
2023-09-24T16:45:04.834Z,99678.40
2023-09-24T16:47:57.335Z,99680.71
2023-09-24T16:50:53.051Z,99680.73
2023-09-24T16:53:45.492Z,99681.79
2023-09-24T16:56:37.658Z,99683.79
2023-09-24T16:59:30.702Z,99687.30
2023-09-24T17:02:22.897Z,99685.69
2023-09-24T17:05:15.574Z,99689.27
2023-09-24T17:08:09.358Z,99685.91
2023-09-24T17:11:01.580Z,99693.92
2023-09-24T17:13:53.954Z,99697.73
2023-09-24T17:16:46.650Z,99695.14
2023-09-24T17:19:39.000Z,99695.43
2023-09-24T17:22:31.195Z,99703.23
2023-09-24T17:25:25.085Z,99707.56
2023-09-24T17:28:17.299Z,99706.50
2023-09-24T17:30:52.582Z,99703.92
2023-09-24T17:33:46.555Z,99702.55
2023-09-24T17:36:38.963Z,99705.45
2023-09-24T17:39:32.696Z,99716.57
2023-09-24T17:42:24.944Z,99726.52
2023-09-24T17:45:17.835Z,99728.64
2023-09-24T17:48:10.999Z,99731.65
2023-09-24T17:51:07.104Z,99731.55
2023-09-24T17:53:59.438Z,99733.81
2023-09-24T17:56:51.877Z,99735.43
2023-09-24T17:59:44.178Z,99734.21
2023-09-24T18:02:38.323Z,99742.07
2023-09-24T18:05:31.376Z,99742.91
2023-09-24T18:08:14.761Z,99745.05
2023-09-24T18:11:07.415Z,99744.06
2023-09-24T18:13:59.745Z,99748.70
2023-09-24T18:16:52.024Z,99749.72
2023-09-24T18:19:44.299Z,99759.41
2023-09-24T18:22:36.532Z,99760.64
2023-09-24T18:25:28.911Z,99762.48
2023-09-24T18:28:21.463Z,99761.45
2023-09-24T18:31:14.388Z,99761.59
2023-09-24T18:34:06.742Z,99758.80
2023-09-24T18:36:58.901Z,99758.80
2023-09-24T18:39:51.174Z,99764.44
2023-09-24T18:42:45.307Z,99765.79
2023-09-24T18:45:39.010Z,99768.23
2023-09-24T18:48:26.450Z,99767.63
2023-09-24T18:51:16.065Z,99769.04
2023-09-24T18:53:48.715Z,99772.02
2023-09-24T18:56:41.272Z,99766.95
2023-09-24T18:59:33.471Z,99765.27
2023-09-24T19:02:25.700Z,99770.75
2023-09-24T19:05:18.530Z,99770.58
2023-09-24T19:08:10.719Z,99771.73
2023-09-24T19:11:02.974Z,99771.25
2023-09-24T19:13:55.258Z,99772.66
2023-09-24T19:16:47.560Z,99771.16
2023-09-24T19:19:39.774Z,99770.89
2023-09-24T19:22:32.574Z,99773.27
2023-09-24T19:25:25.751Z,99770.29
2023-09-24T19:28:17.988Z,99776.73
2023-09-24T19:31:11.365Z,99780.55
2023-09-24T19:34:03.683Z,99783.90
2023-09-24T19:36:56.105Z,99782.80
2023-09-24T19:39:48.370Z,99780.85
2023-09-24T19:42:40.571Z,99776.77
2023-09-24T19:45:32.900Z,99779.58
2023-09-24T19:48:26.720Z,99775.78
2023-09-24T19:51:19.155Z,99775.52
2023-09-24T19:54:11.506Z,99770.75
2023-09-24T19:57:03.728Z,99768.66
2023-09-24T19:59:56.797Z,99772.30
2023-09-24T20:02:49.054Z,99768.94
2023-09-24T20:05:43.177Z,99765.17
2023-09-24T20:08:42.672Z,99770.08
2023-09-24T20:11:35.695Z,99768.47
2023-09-24T20:14:29.720Z,99764.27
2023-09-24T20:17:20.437Z,99760.78
2023-09-24T20:20:13.912Z,99755.67
2023-09-24T20:23:06.974Z,99752.48
2023-09-24T20:25:59.687Z,99757.55
2023-09-24T20:28:52.903Z,99761.89
2023-09-24T20:31:46.225Z,99763.26
2023-09-24T20:34:39.118Z,99767.15
2023-09-24T20:37:31.500Z,99769.64
2023-09-24T20:40:23.766Z,99768.40
2023-09-24T20:43:16.212Z,99766.59
2023-09-24T20:46:00.452Z,99772.83
2023-09-24T20:48:52.951Z,99780.71
2023-09-24T20:51:45.435Z,99777.11
2023-09-24T20:54:37.892Z,99776.23
2023-09-24T20:57:30.271Z,99777.64
2023-09-24T21:00:30.835Z,99777.44
2023-09-24T21:03:23.252Z,99778.25
2023-09-24T21:06:15.925Z,99782.04
2023-09-24T21:08:50.352Z,99783.41
2023-09-24T21:11:44.304Z,99786.17
2023-09-24T21:14:36.564Z,99787.46
2023-09-24T21:17:18.742Z,99791.77
2023-09-24T21:20:13.201Z,99798.27
2023-09-24T21:23:06.665Z,99796.33
2023-09-24T21:26:05.239Z,99792.33
2023-09-24T21:28:57.545Z,99790.32
2023-09-24T21:31:49.806Z,99789.91
2023-09-24T21:34:42.076Z,99785.80
2023-09-24T21:37:34.536Z,99785.64
2023-09-24T21:40:17.067Z,99783.05
2023-09-24T21:43:10.151Z,99779.38
2023-09-24T21:46:03.675Z,99777.77
2023-09-24T21:48:56.264Z,99777.66
2023-09-24T21:52:06.242Z,99771.89
2023-09-24T21:54:58.349Z,99772.25
2023-09-24T21:57:50.544Z,99769.16
2023-09-24T22:00:43.515Z,99772.32
2023-09-24T22:03:35.884Z,99780.37
2023-09-24T22:06:29.765Z,99778.10
2023-09-24T22:09:18.232Z,99782.99
2023-09-24T22:12:10.632Z,99787.41
2023-09-24T22:15:02.904Z,99790.63
2023-09-24T22:17:55.202Z,99793.57
2023-09-24T22:20:47.252Z,99800.21
2023-09-24T22:23:39.514Z,99806.65
2023-09-24T22:26:32.136Z,99806.02
2023-09-24T22:29:24.140Z,99806.25
2023-09-24T22:32:16.202Z,99804.89
2023-09-24T22:35:12.058Z,99806.61
2023-09-24T22:38:04.213Z,99808.09
2023-09-24T22:40:45.107Z,99809.06
2023-09-24T22:43:37.172Z,99808.90
2023-09-24T22:46:29.195Z,99804.60
2023-09-24T22:49:21.308Z,99801.11
2023-09-24T22:52:14.168Z,99802.88
2023-09-24T22:55:07.784Z,99797.94
2023-09-24T22:57:45.674Z,99793.07
2023-09-24T23:00:37.794Z,99790.63
2023-09-24T23:03:20.389Z,99792.55
2023-09-24T23:06:12.562Z,99792.61
2023-09-24T23:09:04.741Z,99791.00
2023-09-24T23:11:57.618Z,99790.06
2023-09-24T23:14:50.369Z,99783.59
2023-09-24T23:17:27.273Z,99785.00
2023-09-24T23:20:19.657Z,99787.48
2023-09-24T23:23:11.723Z,99784.05
2023-09-24T23:26:05.530Z,99788.41
2023-09-24T23:28:57.704Z,99784.29
2023-09-24T23:31:51.695Z,99779.97
2023-09-24T23:34:44.696Z,99778.70
2023-09-24T23:37:36.814Z,99770.84
2023-09-24T23:40:33.165Z,99765.01
2023-09-24T23:43:25.255Z,99764.49
2023-09-24T23:46:18.634Z,99760.84
2023-09-24T23:49:11.094Z,99765.94
2023-09-24T23:51:43.167Z,99773.94
2023-09-24T23:54:36.077Z,99771.86
2023-09-24T23:57:28.354Z,99774.82
